sensor_id;sensor_type;location;lat;lon;timestamp;P1;durP1;ratioP1;P2;durP2;ratioP2
4122;SDS011;2075;51.062;6.920;2024-02-21T00:01:05;16.70;;;6.97;;
4122;SDS011;2075;51.062;6.920;2024-02-21T00:03:50;22.00;;;7.40;;
4122;SDS011;2075;51.062;6.920;2024-02-21T00:06:36;20.63;;;7.80;;
4122;SDS011;2075;51.062;6.920;2024-02-21T00:09:22;29.67;;;8.50;;
4122;SDS011;2075;51.062;6.920;2024-02-21T00:12:09;15.07;;;7.33;;
4122;SDS011;2075;51.062;6.920;2024-02-21T00:14:58;20.03;;;7.10;;
4122;SDS011;2075;51.062;6.920;2024-02-21T00:17:43;22.17;;;7.17;;
4122;SDS011;2075;51.062;6.920;2024-02-21T00:20:29;17.43;;;7.00;;
4122;SDS011;2075;51.062;6.920;2024-02-21T00:23:14;22.10;;;6.73;;
4122;SDS011;2075;51.062;6.920;2024-02-21T00:26:00;14.90;;;6.97;;
4122;SDS011;2075;51.062;6.920;2024-02-21T00:28:47;18.47;;;7.33;;
4122;SDS011;2075;51.062;6.920;2024-02-21T00:31:33;16.60;;;7.03;;
4122;SDS011;2075;51.062;6.920;2024-02-21T00:34:18;18.40;;;7.17;;
4122;SDS011;2075;51.062;6.920;2024-02-21T00:37:04;20.40;;;7.47;;
4122;SDS011;2075;51.062;6.920;2024-02-21T00:39:49;19.60;;;6.63;;
4122;SDS011;2075;51.062;6.920;2024-02-21T00:42:35;19.00;;;7.37;;
4122;SDS011;2075;51.062;6.920;2024-02-21T00:45:22;21.40;;;6.57;;
4122;SDS011;2075;51.062;6.920;2024-02-21T00:48:08;15.93;;;7.30;;
4122;SDS011;2075;51.062;6.920;2024-02-21T00:50:54;20.13;;;7.43;;
4122;SDS011;2075;51.062;6.920;2024-02-21T00:53:39;18.43;;;6.80;;
4122;SDS011;2075;51.062;6.920;2024-02-21T00:56:25;17.30;;;7.27;;
4122;SDS011;2075;51.062;6.920;2024-02-21T00:59:10;23.20;;;7.20;;
4122;SDS011;2075;51.062;6.920;2024-02-21T01:01:57;23.20;;;7.40;;
4122;SDS011;2075;51.062;6.920;2024-02-21T01:04:43;20.70;;;6.67;;
4122;SDS011;2075;51.062;6.920;2024-02-21T01:07:28;21.80;;;7.37;;
4122;SDS011;2075;51.062;6.920;2024-02-21T01:10:14;20.80;;;7.47;;
4122;SDS011;2075;51.062;6.920;2024-02-21T01:13:01;16.30;;;6.50;;
4122;SDS011;2075;51.062;6.920;2024-02-21T01:15:46;18.97;;;6.87;;
4122;SDS011;2075;51.062;6.920;2024-02-21T01:18:33;24.93;;;7.60;;
4122;SDS011;2075;51.062;6.920;2024-02-21T01:21:19;14.23;;;7.20;;
4122;SDS011;2075;51.062;6.920;2024-02-21T01:24:05;18.43;;;6.67;;
4122;SDS011;2075;51.062;6.920;2024-02-21T01:26:51;24.70;;;7.30;;
4122;SDS011;2075;51.062;6.920;2024-02-21T01:29:37;19.00;;;7.40;;
4122;SDS011;2075;51.062;6.920;2024-02-21T01:32:22;17.23;;;7.40;;
4122;SDS011;2075;51.062;6.920;2024-02-21T01:35:12;21.57;;;7.40;;
4122;SDS011;2075;51.062;6.920;2024-02-21T01:37:58;17.50;;;7.20;;
4122;SDS011;2075;51.062;6.920;2024-02-21T01:40:43;20.53;;;7.07;;
4122;SDS011;2075;51.062;6.920;2024-02-21T01:43:29;17.53;;;7.37;;
4122;SDS011;2075;51.062;6.920;2024-02-21T01:46:14;16.33;;;6.60;;
4122;SDS011;2075;51.062;6.920;2024-02-21T01:49:00;15.70;;;7.23;;
4122;SDS011;2075;51.062;6.920;2024-02-21T01:51:47;19.90;;;7.40;;
4122;SDS011;2075;51.062;6.920;2024-02-21T01:54:33;24.63;;;7.63;;
4122;SDS011;2075;51.062;6.920;2024-02-21T01:57:18;21.00;;;7.43;;
4122;SDS011;2075;51.062;6.920;2024-02-21T02:00:04;19.47;;;7.43;;
4122;SDS011;2075;51.062;6.920;2024-02-21T02:02:54;12.33;;;7.07;;
4122;SDS011;2075;51.062;6.920;2024-02-21T02:05:40;17.77;;;7.13;;
4122;SDS011;2075;51.062;6.920;2024-02-21T02:08:27;20.80;;;7.10;;
4122;SDS011;2075;51.062;6.920;2024-02-21T02:11:13;21.57;;;6.60;;
4122;SDS011;2075;51.062;6.920;2024-02-21T02:13:59;24.33;;;6.27;;
4122;SDS011;2075;51.062;6.920;2024-02-21T02:16:46;17.00;;;6.70;;
4122;SDS011;2075;51.062;6.920;2024-02-21T02:19:32;20.40;;;7.93;;
4122;SDS011;2075;51.062;6.920;2024-02-21T02:22:19;15.73;;;6.97;;
4122;SDS011;2075;51.062;6.920;2024-02-21T02:25:09;26.63;;;6.80;;
4122;SDS011;2075;51.062;6.920;2024-02-21T02:27:55;20.87;;;7.30;;
4122;SDS011;2075;51.062;6.920;2024-02-21T02:30:41;18.40;;;7.47;;
4122;SDS011;2075;51.062;6.920;2024-02-21T02:33:26;15.03;;;6.80;;
4122;SDS011;2075;51.062;6.920;2024-02-21T02:36:12;24.47;;;7.17;;
4122;SDS011;2075;51.062;6.920;2024-02-21T02:38:57;16.20;;;6.80;;
4122;SDS011;2075;51.062;6.920;2024-02-21T02:41:44;15.10;;;7.00;;
4122;SDS011;2075;51.062;6.920;2024-02-21T02:44:30;21.90;;;7.10;;
4122;SDS011;2075;51.062;6.920;2024-02-21T02:47:15;22.13;;;6.90;;
4122;SDS011;2075;51.062;6.920;2024-02-21T02:50:00;14.00;;;7.30;;
4122;SDS011;2075;51.062;6.920;2024-02-21T02:52:48;21.57;;;6.90;;
4122;SDS011;2075;51.062;6.920;2024-02-21T02:55:34;15.40;;;6.50;;
4122;SDS011;2075;51.062;6.920;2024-02-21T02:58:21;15.70;;;6.93;;
4122;SDS011;2075;51.062;6.920;2024-02-21T03:01:07;12.67;;;6.53;;
4122;SDS011;2075;51.062;6.920;2024-02-21T03:03:52;17.50;;;6.70;;
4122;SDS011;2075;51.062;6.920;2024-02-21T03:06:38;21.83;;;7.97;;
4122;SDS011;2075;51.062;6.920;2024-02-21T03:09:23;16.17;;;7.00;;
4122;SDS011;2075;51.062;6.920;2024-02-21T03:12:11;19.87;;;7.97;;
4122;SDS011;2075;51.062;6.920;2024-02-21T03:15:04;14.47;;;6.70;;
4122;SDS011;2075;51.062;6.920;2024-02-21T03:17:51;19.43;;;6.00;;
4122;SDS011;2075;51.062;6.920;2024-02-21T03:20:36;12.00;;;6.33;;
4122;SDS011;2075;51.062;6.920;2024-02-21T03:23:21;19.13;;;7.20;;
4122;SDS011;2075;51.062;6.920;2024-02-21T03:26:07;14.30;;;6.40;;
4122;SDS011;2075;51.062;6.920;2024-02-21T03:28:53;20.43;;;6.57;;
4122;SDS011;2075;51.062;6.920;2024-02-21T03:31:40;17.83;;;6.67;;
4122;SDS011;2075;51.062;6.920;2024-02-21T03:34:26;18.63;;;6.73;;
4122;SDS011;2075;51.062;6.920;2024-02-21T03:37:11;15.83;;;6.43;;
4122;SDS011;2075;51.062;6.920;2024-02-21T03:39:57;16.93;;;6.20;;
4122;SDS011;2075;51.062;6.920;2024-02-21T03:42:43;26.80;;;7.00;;
4122;SDS011;2075;51.062;6.920;2024-02-21T03:45:28;17.33;;;6.13;;
4122;SDS011;2075;51.062;6.920;2024-02-21T03:48:16;16.07;;;5.77;;
4122;SDS011;2075;51.062;6.920;2024-02-21T03:51:02;17.87;;;5.73;;
4122;SDS011;2075;51.062;6.920;2024-02-21T03:53:47;23.80;;;6.87;;
4122;SDS011;2075;51.062;6.920;2024-02-21T03:56:36;13.63;;;6.83;;
4122;SDS011;2075;51.062;6.920;2024-02-21T03:59:23;12.40;;;5.83;;
4122;SDS011;2075;51.062;6.920;2024-02-21T04:02:09;18.30;;;5.50;;
4122;SDS011;2075;51.062;6.920;2024-02-21T04:04:56;16.80;;;5.67;;
4122;SDS011;2075;51.062;6.920;2024-02-21T04:07:42;12.40;;;5.73;;
4122;SDS011;2075;51.062;6.920;2024-02-21T04:10:28;18.40;;;5.83;;
4122;SDS011;2075;51.062;6.920;2024-02-21T04:13:13;13.13;;;5.80;;
4122;SDS011;2075;51.062;6.920;2024-02-21T04:15:59;18.43;;;6.40;;
4122;SDS011;2075;51.062;6.920;2024-02-21T04:18:45;17.23;;;5.53;;
4122;SDS011;2075;51.062;6.920;2024-02-21T04:21:32;10.67;;;4.80;;
4122;SDS011;2075;51.062;6.920;2024-02-21T04:24:18;12.90;;;5.00;;
4122;SDS011;2075;51.062;6.920;2024-02-21T04:27:03;15.03;;;5.60;;
4122;SDS011;2075;51.062;6.920;2024-02-21T04:29:49;15.50;;;5.73;;
4122;SDS011;2075;51.062;6.920;2024-02-21T04:32:35;14.80;;;5.63;;
4122;SDS011;2075;51.062;6.920;2024-02-21T04:35:21;12.93;;;5.67;;
4122;SDS011;2075;51.062;6.920;2024-02-21T04:38:09;15.13;;;6.27;;
4122;SDS011;2075;51.062;6.920;2024-02-21T04:40:54;19.93;;;5.60;;
4122;SDS011;2075;51.062;6.920;2024-02-21T04:43:42;15.40;;;5.20;;
4122;SDS011;2075;51.062;6.920;2024-02-21T04:46:28;12.07;;;5.37;;
4122;SDS011;2075;51.062;6.920;2024-02-21T04:49:13;9.40;;;4.73;;
4122;SDS011;2075;51.062;6.920;2024-02-21T04:51:59;14.57;;;5.50;;
4122;SDS011;2075;51.062;6.920;2024-02-21T04:54:46;15.37;;;5.60;;
4122;SDS011;2075;51.062;6.920;2024-02-21T04:57:32;24.00;;;6.80;;
4122;SDS011;2075;51.062;6.920;2024-02-21T05:00:18;17.40;;;5.60;;
4122;SDS011;2075;51.062;6.920;2024-02-21T05:03:05;20.90;;;6.50;;
4122;SDS011;2075;51.062;6.920;2024-02-21T05:05:50;17.80;;;5.93;;
4122;SDS011;2075;51.062;6.920;2024-02-21T05:08:35;16.27;;;5.60;;
4122;SDS011;2075;51.062;6.920;2024-02-21T05:11:22;16.93;;;5.97;;
4122;SDS011;2075;51.062;6.920;2024-02-21T05:14:08;19.70;;;6.17;;
4122;SDS011;2075;51.062;6.920;2024-02-21T05:16:56;14.50;;;6.60;;
4122;SDS011;2075;51.062;6.920;2024-02-21T05:19:42;11.40;;;5.80;;
4122;SDS011;2075;51.062;6.920;2024-02-21T05:22:27;25.27;;;10.60;;
4122;SDS011;2075;51.062;6.920;2024-02-21T05:25:16;10.10;;;5.87;;
4122;SDS011;2075;51.062;6.920;2024-02-21T05:28:03;17.30;;;5.70;;
4122;SDS011;2075;51.062;6.920;2024-02-21T05:30:49;12.13;;;5.37;;
4122;SDS011;2075;51.062;6.920;2024-02-21T05:33:35;18.60;;;7.33;;
4122;SDS011;2075;51.062;6.920;2024-02-21T05:36:20;12.87;;;5.00;;
4122;SDS011;2075;51.062;6.920;2024-02-21T05:39:06;10.83;;;5.20;;
4122;SDS011;2075;51.062;6.920;2024-02-21T05:41:52;12.87;;;5.10;;
4122;SDS011;2075;51.062;6.920;2024-02-21T05:44:39;15.63;;;5.67;;
4122;SDS011;2075;51.062;6.920;2024-02-21T05:47:27;16.60;;;4.93;;
4122;SDS011;2075;51.062;6.920;2024-02-21T05:50:13;14.13;;;5.70;;
4122;SDS011;2075;51.062;6.920;2024-02-21T05:52:58;16.57;;;5.30;;
4122;SDS011;2075;51.062;6.920;2024-02-21T05:55:44;9.83;;;4.67;;
4122;SDS011;2075;51.062;6.920;2024-02-21T05:58:29;9.10;;;4.83;;
4122;SDS011;2075;51.062;6.920;2024-02-21T06:01:16;13.10;;;5.10;;
4122;SDS011;2075;51.062;6.920;2024-02-21T06:04:02;11.97;;;5.07;;
4122;SDS011;2075;51.062;6.920;2024-02-21T06:06:48;14.37;;;5.97;;
4122;SDS011;2075;51.062;6.920;2024-02-21T06:09:34;8.30;;;5.03;;
4122;SDS011;2075;51.062;6.920;2024-02-21T06:12:20;16.30;;;5.60;;
4122;SDS011;2075;51.062;6.920;2024-02-21T06:15:06;13.00;;;5.53;;
4122;SDS011;2075;51.062;6.920;2024-02-21T06:17:53;14.73;;;5.60;;
4122;SDS011;2075;51.062;6.920;2024-02-21T06:20:39;23.40;;;7.00;;
4122;SDS011;2075;51.062;6.920;2024-02-21T06:23:27;19.23;;;5.70;;
4122;SDS011;2075;51.062;6.920;2024-02-21T06:26:14;18.90;;;6.37;;
4122;SDS011;2075;51.062;6.920;2024-02-21T06:29:00;13.10;;;5.60;;
4122;SDS011;2075;51.062;6.920;2024-02-21T06:31:52;9.90;;;6.13;;
4122;SDS011;2075;51.062;6.920;2024-02-21T06:34:39;9.43;;;5.57;;
4122;SDS011;2075;51.062;6.920;2024-02-21T06:37:27;10.17;;;6.03;;
4122;SDS011;2075;51.062;6.920;2024-02-21T06:40:14;10.70;;;5.47;;
4122;SDS011;2075;51.062;6.920;2024-02-21T06:43:17;12.43;;;5.37;;
4122;SDS011;2075;51.062;6.920;2024-02-21T06:46:04;8.50;;;3.87;;
4122;SDS011;2075;51.062;6.920;2024-02-21T06:48:50;11.00;;;5.50;;
4122;SDS011;2075;51.062;6.920;2024-02-21T06:51:37;9.23;;;5.00;;
4122;SDS011;2075;51.062;6.920;2024-02-21T06:54:22;8.87;;;4.60;;
4122;SDS011;2075;51.062;6.920;2024-02-21T06:57:08;9.83;;;4.40;;
4122;SDS011;2075;51.062;6.920;2024-02-21T06:59:54;6.93;;;4.47;;
4122;SDS011;2075;51.062;6.920;2024-02-21T07:02:39;13.13;;;4.70;;
4122;SDS011;2075;51.062;6.920;2024-02-21T07:05:25;12.57;;;4.93;;
4122;SDS011;2075;51.062;6.920;2024-02-21T07:08:15;8.10;;;4.20;;
4122;SDS011;2075;51.062;6.920;2024-02-21T07:11:18;9.93;;;4.50;;
4122;SDS011;2075;51.062;6.920;2024-02-21T07:14:13;6.47;;;4.00;;
4122;SDS011;2075;51.062;6.920;2024-02-21T07:16:59;8.40;;;4.43;;
4122;SDS011;2075;51.062;6.920;2024-02-21T07:19:45;13.27;;;5.00;;
4122;SDS011;2075;51.062;6.920;2024-02-21T07:22:30;10.27;;;4.60;;
4122;SDS011;2075;51.062;6.920;2024-02-21T07:25:18;15.87;;;5.67;;
4122;SDS011;2075;51.062;6.920;2024-02-21T07:28:04;12.63;;;6.80;;
4122;SDS011;2075;51.062;6.920;2024-02-21T07:30:51;11.50;;;6.60;;
4122;SDS011;2075;51.062;6.920;2024-02-21T07:33:37;21.83;;;7.37;;
4122;SDS011;2075;51.062;6.920;2024-02-21T07:36:28;12.37;;;6.60;;
4122;SDS011;2075;51.062;6.920;2024-02-21T07:39:14;10.70;;;6.70;;
4122;SDS011;2075;51.062;6.920;2024-02-21T07:42:04;12.70;;;7.10;;
4122;SDS011;2075;51.062;6.920;2024-02-21T07:44:51;11.40;;;6.50;;
4122;SDS011;2075;51.062;6.920;2024-02-21T07:47:37;16.33;;;5.90;;
4122;SDS011;2075;51.062;6.920;2024-02-21T07:50:25;16.93;;;6.50;;
4122;SDS011;2075;51.062;6.920;2024-02-21T07:53:12;15.13;;;6.30;;
4122;SDS011;2075;51.062;6.920;2024-02-21T07:56:02;28.00;;;11.50;;
4122;SDS011;2075;51.062;6.920;2024-02-21T07:58:50;22.43;;;10.67;;
4122;SDS011;2075;51.062;6.920;2024-02-21T08:01:39;16.20;;;6.77;;
4122;SDS011;2075;51.062;6.920;2024-02-21T08:04:26;13.73;;;6.90;;
4122;SDS011;2075;51.062;6.920;2024-02-21T08:07:11;28.20;;;9.17;;
4122;SDS011;2075;51.062;6.920;2024-02-21T08:09:57;19.90;;;7.63;;
4122;SDS011;2075;51.062;6.920;2024-02-21T08:12:43;22.60;;;6.73;;
4122;SDS011;2075;51.062;6.920;2024-02-21T08:15:30;12.10;;;5.83;;
4122;SDS011;2075;51.062;6.920;2024-02-21T08:18:17;29.43;;;10.03;;
4122;SDS011;2075;51.062;6.920;2024-02-21T08:21:06;21.27;;;8.30;;
4122;SDS011;2075;51.062;6.920;2024-02-21T08:23:52;18.33;;;7.63;;
4122;SDS011;2075;51.062;6.920;2024-02-21T08:26:39;16.00;;;5.87;;
4122;SDS011;2075;51.062;6.920;2024-02-21T08:29:25;15.43;;;6.27;;
4122;SDS011;2075;51.062;6.920;2024-02-21T08:32:13;15.30;;;6.30;;
4122;SDS011;2075;51.062;6.920;2024-02-21T08:34:59;20.50;;;7.40;;
4122;SDS011;2075;51.062;6.920;2024-02-21T08:37:44;13.80;;;5.77;;
4122;SDS011;2075;51.062;6.920;2024-02-21T08:40:31;14.17;;;6.70;;
4122;SDS011;2075;51.062;6.920;2024-02-21T08:43:19;10.37;;;5.50;;
4122;SDS011;2075;51.062;6.920;2024-02-21T08:46:05;15.00;;;5.00;;
4122;SDS011;2075;51.062;6.920;2024-02-21T08:48:55;13.13;;;5.53;;
4122;SDS011;2075;51.062;6.920;2024-02-21T08:51:41;6.50;;;4.20;;
4122;SDS011;2075;51.062;6.920;2024-02-21T08:54:29;14.70;;;4.73;;
4122;SDS011;2075;51.062;6.920;2024-02-21T08:57:16;12.20;;;4.63;;
4122;SDS011;2075;51.062;6.920;2024-02-21T09:00:03;10.37;;;4.17;;
4122;SDS011;2075;51.062;6.920;2024-02-21T09:02:53;16.20;;;5.13;;
4122;SDS011;2075;51.062;6.920;2024-02-21T09:05:42;10.37;;;4.33;;
4122;SDS011;2075;51.062;6.920;2024-02-21T09:08:28;10.70;;;4.47;;
4122;SDS011;2075;51.062;6.920;2024-02-21T09:11:15;16.63;;;5.33;;
4122;SDS011;2075;51.062;6.920;2024-02-21T09:14:01;9.57;;;4.27;;
4122;SDS011;2075;51.062;6.920;2024-02-21T09:16:49;11.90;;;4.80;;
4122;SDS011;2075;51.062;6.920;2024-02-21T09:19:35;13.80;;;4.50;;
4122;SDS011;2075;51.062;6.920;2024-02-21T09:22:23;16.43;;;5.30;;
4122;SDS011;2075;51.062;6.920;2024-02-21T09:25:08;10.37;;;4.80;;
4122;SDS011;2075;51.062;6.920;2024-02-21T09:27:55;13.13;;;5.13;;
4122;SDS011;2075;51.062;6.920;2024-02-21T09:30:42;11.67;;;4.03;;
4122;SDS011;2075;51.062;6.920;2024-02-21T09:33:29;9.37;;;3.53;;
4122;SDS011;2075;51.062;6.920;2024-02-21T09:36:16;11.83;;;4.40;;
4122;SDS011;2075;51.062;6.920;2024-02-21T09:39:05;9.00;;;4.47;;
4122;SDS011;2075;51.062;6.920;2024-02-21T09:41:53;11.80;;;4.20;;
4122;SDS011;2075;51.062;6.920;2024-02-21T09:44:44;7.03;;;4.53;;
4122;SDS011;2075;51.062;6.920;2024-02-21T09:47:33;11.23;;;4.63;;
4122;SDS011;2075;51.062;6.920;2024-02-21T09:50:29;13.03;;;5.80;;
4122;SDS011;2075;51.062;6.920;2024-02-21T09:53:18;12.70;;;4.77;;
4122;SDS011;2075;51.062;6.920;2024-02-21T09:56:10;11.50;;;4.23;;
4122;SDS011;2075;51.062;6.920;2024-02-21T09:58:56;11.00;;;3.90;;
4122;SDS011;2075;51.062;6.920;2024-02-21T10:01:43;9.83;;;4.70;;
4122;SDS011;2075;51.062;6.920;2024-02-21T10:04:31;15.60;;;4.90;;
4122;SDS011;2075;51.062;6.920;2024-02-21T10:07:17;8.83;;;4.73;;
4122;SDS011;2075;51.062;6.920;2024-02-21T10:10:09;8.57;;;4.00;;
4122;SDS011;2075;51.062;6.920;2024-02-21T10:12:57;6.97;;;4.40;;
4122;SDS011;2075;51.062;6.920;2024-02-21T10:15:45;9.30;;;4.50;;
4122;SDS011;2075;51.062;6.920;2024-02-21T10:18:34;8.03;;;4.23;;
4122;SDS011;2075;51.062;6.920;2024-02-21T10:21:21;11.57;;;4.60;;
4122;SDS011;2075;51.062;6.920;2024-02-21T10:24:11;6.67;;;3.67;;
4122;SDS011;2075;51.062;6.920;2024-02-21T10:27:04;8.17;;;4.17;;
4122;SDS011;2075;51.062;6.920;2024-02-21T10:29:54;12.17;;;5.50;;
4122;SDS011;2075;51.062;6.920;2024-02-21T10:32:48;11.23;;;4.60;;
4122;SDS011;2075;51.062;6.920;2024-02-21T10:35:48;7.13;;;4.23;;
4122;SDS011;2075;51.062;6.920;2024-02-21T10:38:36;11.40;;;4.40;;
4122;SDS011;2075;51.062;6.920;2024-02-21T10:41:22;11.20;;;4.70;;
4122;SDS011;2075;51.062;6.920;2024-02-21T10:44:10;14.10;;;5.13;;
4122;SDS011;2075;51.062;6.920;2024-02-21T10:47:04;9.70;;;4.60;;
4122;SDS011;2075;51.062;6.920;2024-02-21T10:49:56;8.73;;;4.77;;
4122;SDS011;2075;51.062;6.920;2024-02-21T10:52:51;11.03;;;5.80;;
4122;SDS011;2075;51.062;6.920;2024-02-21T10:55:58;15.03;;;7.23;;
4122;SDS011;2075;51.062;6.920;2024-02-21T10:58:53;8.40;;;4.23;;
4122;SDS011;2075;51.062;6.920;2024-02-21T11:01:41;8.50;;;4.33;;
4122;SDS011;2075;51.062;6.920;2024-02-21T11:04:30;9.43;;;4.60;;
4122;SDS011;2075;51.062;6.920;2024-02-21T11:07:20;8.80;;;3.80;;
4122;SDS011;2075;51.062;6.920;2024-02-21T11:10:19;8.73;;;3.90;;
4122;SDS011;2075;51.062;6.920;2024-02-21T11:13:07;14.43;;;4.20;;
4122;SDS011;2075;51.062;6.920;2024-02-21T11:15:53;10.00;;;3.80;;
4122;SDS011;2075;51.062;6.920;2024-02-21T11:18:38;5.97;;;3.63;;
4122;SDS011;2075;51.062;6.920;2024-02-21T11:21:34;7.67;;;3.77;;
4122;SDS011;2075;51.062;6.920;2024-02-21T11:24:27;10.93;;;4.50;;
4122;SDS011;2075;51.062;6.920;2024-02-21T11:27:15;9.63;;;4.60;;
4122;SDS011;2075;51.062;6.920;2024-02-21T11:30:11;8.90;;;4.17;;
4122;SDS011;2075;51.062;6.920;2024-02-21T11:33:09;11.10;;;4.40;;
4122;SDS011;2075;51.062;6.920;2024-02-21T11:36:23;10.20;;;4.07;;
4122;SDS011;2075;51.062;6.920;2024-02-21T11:39:26;14.83;;;4.67;;
4122;SDS011;2075;51.062;6.920;2024-02-21T11:42:13;11.10;;;4.70;;
4122;SDS011;2075;51.062;6.920;2024-02-21T11:45:06;7.50;;;4.00;;
4122;SDS011;2075;51.062;6.920;2024-02-21T11:47:57;13.03;;;3.80;;
4122;SDS011;2075;51.062;6.920;2024-02-21T11:50:58;11.63;;;5.20;;
4122;SDS011;2075;51.062;6.920;2024-02-21T11:53:54;12.57;;;4.20;;
4122;SDS011;2075;51.062;6.920;2024-02-21T11:56:43;8.23;;;3.97;;
4122;SDS011;2075;51.062;6.920;2024-02-21T11:59:30;9.03;;;3.67;;
4122;SDS011;2075;51.062;6.920;2024-02-21T12:02:19;10.13;;;4.53;;
4122;SDS011;2075;51.062;6.920;2024-02-21T12:05:15;10.27;;;4.53;;
4122;SDS011;2075;51.062;6.920;2024-02-21T12:08:23;8.63;;;4.30;;
4122;SDS011;2075;51.062;6.920;2024-02-21T12:11:18;10.07;;;3.67;;
4122;SDS011;2075;51.062;6.920;2024-02-21T12:14:08;7.97;;;3.70;;
4122;SDS011;2075;51.062;6.920;2024-02-21T12:16:54;8.10;;;3.27;;
4122;SDS011;2075;51.062;6.920;2024-02-21T12:19:52;8.53;;;3.13;;
4122;SDS011;2075;51.062;6.920;2024-02-21T12:22:45;10.40;;;3.67;;
4122;SDS011;2075;51.062;6.920;2024-02-21T12:25:38;11.73;;;3.10;;
4122;SDS011;2075;51.062;6.920;2024-02-21T12:28:27;7.80;;;4.13;;
4122;SDS011;2075;51.062;6.920;2024-02-21T12:31:19;10.37;;;3.90;;
4122;SDS011;2075;51.062;6.920;2024-02-21T12:34:13;7.07;;;3.80;;
4122;SDS011;2075;51.062;6.920;2024-02-21T12:37:01;10.40;;;3.80;;
4122;SDS011;2075;51.062;6.920;2024-02-21T12:39:49;10.80;;;4.00;;
4122;SDS011;2075;51.062;6.920;2024-02-21T12:42:36;3.30;;;2.87;;
4122;SDS011;2075;51.062;6.920;2024-02-21T12:45:23;8.93;;;4.30;;
4122;SDS011;2075;51.062;6.920;2024-02-21T12:48:11;10.27;;;3.97;;
4122;SDS011;2075;51.062;6.920;2024-02-21T12:51:00;18.80;;;4.20;;
4122;SDS011;2075;51.062;6.920;2024-02-21T12:53:51;8.20;;;3.70;;
4122;SDS011;2075;51.062;6.920;2024-02-21T12:56:39;8.90;;;3.87;;
4122;SDS011;2075;51.062;6.920;2024-02-21T12:59:33;9.67;;;3.50;;
4122;SDS011;2075;51.062;6.920;2024-02-21T13:02:26;9.73;;;3.23;;
4122;SDS011;2075;51.062;6.920;2024-02-21T13:05:19;4.50;;;3.37;;
4122;SDS011;2075;51.062;6.920;2024-02-21T13:08:10;8.77;;;3.80;;
4122;SDS011;2075;51.062;6.920;2024-02-21T13:11:10;8.53;;;3.57;;
4122;SDS011;2075;51.062;6.920;2024-02-21T13:14:17;11.50;;;3.50;;
4122;SDS011;2075;51.062;6.920;2024-02-21T13:17:11;3.93;;;3.40;;
4122;SDS011;2075;51.062;6.920;2024-02-21T13:20:59;10.73;;;4.43;;
4122;SDS011;2075;51.062;6.920;2024-02-21T13:23:51;10.40;;;3.87;;
4122;SDS011;2075;51.062;6.920;2024-02-21T13:26:39;7.53;;;3.87;;
4122;SDS011;2075;51.062;6.920;2024-02-21T13:29:25;11.63;;;3.47;;
4122;SDS011;2075;51.062;6.920;2024-02-21T13:32:12;7.27;;;3.93;;
4122;SDS011;2075;51.062;6.920;2024-02-21T13:35:02;6.97;;;3.97;;
4122;SDS011;2075;51.062;6.920;2024-02-21T13:37:50;8.53;;;3.13;;
4122;SDS011;2075;51.062;6.920;2024-02-21T13:40:39;9.77;;;4.03;;
4122;SDS011;2075;51.062;6.920;2024-02-21T13:43:27;11.30;;;4.50;;
4122;SDS011;2075;51.062;6.920;2024-02-21T13:46:14;9.47;;;3.80;;
4122;SDS011;2075;51.062;6.920;2024-02-21T13:49:06;7.67;;;3.67;;
4122;SDS011;2075;51.062;6.920;2024-02-21T13:51:59;9.43;;;3.70;;
4122;SDS011;2075;51.062;6.920;2024-02-21T13:54:57;11.10;;;3.87;;
4122;SDS011;2075;51.062;6.920;2024-02-21T13:57:43;7.63;;;3.80;;
4122;SDS011;2075;51.062;6.920;2024-02-21T14:00:31;7.43;;;3.20;;
4122;SDS011;2075;51.062;6.920;2024-02-21T14:03:20;8.30;;;3.20;;
4122;SDS011;2075;51.062;6.920;2024-02-21T14:06:06;12.57;;;3.40;;
4122;SDS011;2075;51.062;6.920;2024-02-21T14:08:52;5.53;;;3.77;;
4122;SDS011;2075;51.062;6.920;2024-02-21T14:11:52;6.50;;;3.40;;
4122;SDS011;2075;51.062;6.920;2024-02-21T14:14:43;10.67;;;4.10;;
4122;SDS011;2075;51.062;6.920;2024-02-21T14:17:30;12.23;;;3.50;;
4122;SDS011;2075;51.062;6.920;2024-02-21T14:20:19;5.60;;;3.37;;
4122;SDS011;2075;51.062;6.920;2024-02-21T14:23:05;7.90;;;3.50;;
4122;SDS011;2075;51.062;6.920;2024-02-21T14:25:52;5.10;;;3.27;;
4122;SDS011;2075;51.062;6.920;2024-02-21T14:28:48;9.90;;;3.40;;
4122;SDS011;2075;51.062;6.920;2024-02-21T14:31:35;8.30;;;3.40;;
4122;SDS011;2075;51.062;6.920;2024-02-21T14:34:22;6.70;;;3.17;;
4122;SDS011;2075;51.062;6.920;2024-02-21T14:37:08;9.43;;;3.70;;
4122;SDS011;2075;51.062;6.920;2024-02-21T14:39:54;8.27;;;3.40;;
4122;SDS011;2075;51.062;6.920;2024-02-21T14:42:45;9.77;;;4.00;;
4122;SDS011;2075;51.062;6.920;2024-02-21T14:45:33;11.27;;;2.93;;
4122;SDS011;2075;51.062;6.920;2024-02-21T14:48:19;9.97;;;3.97;;
4122;SDS011;2075;51.062;6.920;2024-02-21T14:51:05;11.00;;;4.03;;
4122;SDS011;2075;51.062;6.920;2024-02-21T14:53:55;6.17;;;3.60;;
4122;SDS011;2075;51.062;6.920;2024-02-21T14:56:41;11.93;;;3.30;;
4122;SDS011;2075;51.062;6.920;2024-02-21T14:59:27;16.73;;;3.70;;
4122;SDS011;2075;51.062;6.920;2024-02-21T15:02:16;10.57;;;3.57;;
4122;SDS011;2075;51.062;6.920;2024-02-21T15:05:03;5.70;;;3.43;;
4122;SDS011;2075;51.062;6.920;2024-02-21T15:07:51;5.80;;;3.77;;
4122;SDS011;2075;51.062;6.920;2024-02-21T15:10:38;9.93;;;3.43;;
4122;SDS011;2075;51.062;6.920;2024-02-21T15:13:42;6.10;;;3.10;;
4122;SDS011;2075;51.062;6.920;2024-02-21T15:16:48;9.83;;;3.57;;
4122;SDS011;2075;51.062;6.920;2024-02-21T15:20:23;15.30;;;4.67;;
4122;SDS011;2075;51.062;6.920;2024-02-21T15:23:18;5.87;;;3.80;;
4122;SDS011;2075;51.062;6.920;2024-02-21T15:26:18;7.00;;;3.67;;
4122;SDS011;2075;51.062;6.920;2024-02-21T15:29:11;10.43;;;3.57;;
4122;SDS011;2075;51.062;6.920;2024-02-21T15:31:58;11.60;;;3.63;;
4122;SDS011;2075;51.062;6.920;2024-02-21T15:34:48;11.90;;;3.17;;
4122;SDS011;2075;51.062;6.920;2024-02-21T15:37:50;9.83;;;3.70;;
4122;SDS011;2075;51.062;6.920;2024-02-21T15:40:38;5.97;;;3.23;;
4122;SDS011;2075;51.062;6.920;2024-02-21T15:43:47;10.00;;;3.63;;
4122;SDS011;2075;51.062;6.920;2024-02-21T15:46:50;5.70;;;3.00;;
4122;SDS011;2075;51.062;6.920;2024-02-21T15:49:39;3.23;;;2.13;;
4122;SDS011;2075;51.062;6.920;2024-02-21T15:52:26;5.87;;;2.03;;
4122;SDS011;2075;51.062;6.920;2024-02-21T15:55:15;3.03;;;2.30;;
4122;SDS011;2075;51.062;6.920;2024-02-21T15:58:03;9.70;;;2.70;;
4122;SDS011;2075;51.062;6.920;2024-02-21T16:00:52;5.77;;;2.37;;
4122;SDS011;2075;51.062;6.920;2024-02-21T16:03:38;4.80;;;2.40;;
4122;SDS011;2075;51.062;6.920;2024-02-21T16:06:31;6.33;;;2.20;;
4122;SDS011;2075;51.062;6.920;2024-02-21T16:09:19;8.27;;;2.87;;
4122;SDS011;2075;51.062;6.920;2024-02-21T16:12:09;4.70;;;2.40;;
4122;SDS011;2075;51.062;6.920;2024-02-21T16:14:58;5.23;;;2.50;;
4122;SDS011;2075;51.062;6.920;2024-02-21T16:17:45;4.67;;;2.63;;
4122;SDS011;2075;51.062;6.920;2024-02-21T16:20:43;2.37;;;2.20;;
4122;SDS011;2075;51.062;6.920;2024-02-21T16:23:42;11.23;;;2.77;;
4122;SDS011;2075;51.062;6.920;2024-02-21T16:26:30;9.57;;;3.00;;
4122;SDS011;2075;51.062;6.920;2024-02-21T16:29:23;4.90;;;2.73;;
4122;SDS011;2075;51.062;6.920;2024-02-21T16:32:16;9.00;;;2.77;;
4122;SDS011;2075;51.062;6.920;2024-02-21T16:35:11;7.13;;;2.73;;
4122;SDS011;2075;51.062;6.920;2024-02-21T16:38:06;2.73;;;2.40;;
4122;SDS011;2075;51.062;6.920;2024-02-21T16:40:54;5.63;;;2.90;;
4122;SDS011;2075;51.062;6.920;2024-02-21T16:43:43;11.13;;;3.07;;
4122;SDS011;2075;51.062;6.920;2024-02-21T16:46:32;6.23;;;2.67;;
4122;SDS011;2075;51.062;6.920;2024-02-21T16:49:22;5.80;;;2.80;;
4122;SDS011;2075;51.062;6.920;2024-02-21T16:52:09;4.17;;;2.40;;
4122;SDS011;2075;51.062;6.920;2024-02-21T16:55:09;5.13;;;3.03;;
4122;SDS011;2075;51.062;6.920;2024-02-21T16:57:55;4.80;;;2.90;;
4122;SDS011;2075;51.062;6.920;2024-02-21T17:00:44;7.10;;;2.70;;
4122;SDS011;2075;51.062;6.920;2024-02-21T17:03:37;8.77;;;2.73;;
4122;SDS011;2075;51.062;6.920;2024-02-21T17:06:24;3.63;;;2.90;;
4122;SDS011;2075;51.062;6.920;2024-02-21T17:09:11;5.00;;;2.80;;
4122;SDS011;2075;51.062;6.920;2024-02-21T17:12:02;6.87;;;3.13;;
4122;SDS011;2075;51.062;6.920;2024-02-21T17:15:00;7.07;;;3.67;;
4122;SDS011;2075;51.062;6.920;2024-02-21T17:17:59;6.63;;;3.70;;